< < Back
Terminal Aerodrome Forecast


Current Version              Previous Versions:   1  2  3  4  5  6  7  8  9  

Terminal Aerodrome Forecast

201
FTUS42 KTAE 280500
TAFDHN
TAF
KDHN 280530Z 2806/2906 36006KT P6SM SKC
     FM282300 12003KT P6SM SKC=

Latest METAR

465
SAUS70 KWBC 280700 RRD
MTRDHN
METAR KDHN 280653Z AUTO 32005KT 10SM CLR 02/M01 A3043 RMK AO2 SLP305
T00171011 FZRANO


USA.gov is the U.S. government's official web portal to all federal, state and local government web resources and services.